createdAt,value
2022-11-19T00:01:07.084Z,6.59
2022-11-19T00:03:39.408Z,6.68
2022-11-19T00:06:13.032Z,6.85
2022-11-19T00:08:44.265Z,6.88
2022-11-19T00:11:39.628Z,6.62
2022-11-19T00:14:08.078Z,6.64
2022-11-19T00:16:38.744Z,6.67
2022-11-19T00:19:09.490Z,6.67
2022-11-19T00:21:39.645Z,6.53
2022-11-19T00:24:12.376Z,6.53
2022-11-19T00:26:45.173Z,6.54
2022-11-19T00:29:18.122Z,6.54
2022-11-19T00:31:48.705Z,6.61
2022-11-19T00:34:18.767Z,6.52
2022-11-19T00:36:49.047Z,6.55
2022-11-19T00:39:20.822Z,6.36
2022-11-19T00:41:53.820Z,6.36
2022-11-19T00:44:23.882Z,6.49
2022-11-19T00:46:53.924Z,6.64
2022-11-19T00:49:24.017Z,6.59
2022-11-19T00:51:55.449Z,6.62
2022-11-19T00:54:25.688Z,6.52
2022-11-19T00:56:58.612Z,6.55
2022-11-19T00:59:28.908Z,6.53
2022-11-19T01:01:58.985Z,6.57
2022-11-19T01:04:29.413Z,6.60
2022-11-19T01:06:59.607Z,6.48
2022-11-19T01:09:29.966Z,6.53
2022-11-19T01:12:02.600Z,6.59
2022-11-19T01:14:32.640Z,6.65
2022-11-19T01:17:02.673Z,6.69
2022-11-19T01:19:32.855Z,6.53
2022-11-19T01:22:02.988Z,6.53
2022-11-19T01:24:33.224Z,6.66
2022-11-19T01:27:05.902Z,6.73
2022-11-19T01:29:35.904Z,6.68
2022-11-19T01:32:06.223Z,6.54
2022-11-19T01:34:36.266Z,6.56
2022-11-19T01:37:06.447Z,6.47
2022-11-19T01:39:36.584Z,6.52
2022-11-19T01:42:29.470Z,6.46
2022-11-19T01:45:09.290Z,6.52
2022-11-19T01:47:39.392Z,6.48
2022-11-19T01:50:10.329Z,6.35
2022-11-19T01:52:41.457Z,6.35
2022-11-19T01:55:13.032Z,6.38
2022-11-19T01:57:45.894Z,6.28
2022-11-19T02:00:18.417Z,6.16
2022-11-19T02:02:48.513Z,6.19
2022-11-19T02:05:19.740Z,6.18
2022-11-19T02:07:58.668Z,6.19
2022-11-19T02:10:41.153Z,5.99
2022-11-19T02:13:26.555Z,6.09
2022-11-19T02:16:07.409Z,6.11
2022-11-19T02:18:53.448Z,6.11
2022-11-19T02:21:36.295Z,6.12
2022-11-19T02:24:41.668Z,6.04
2022-11-19T02:27:53.420Z,6.16
2022-11-19T02:30:26.535Z,6.08
2022-11-19T02:33:07.290Z,6.07
2022-11-19T02:35:53.893Z,5.98
2022-11-19T02:38:37.248Z,5.94
2022-11-19T02:41:36.969Z,6.01
2022-11-19T02:44:31.330Z,5.99
2022-11-19T02:47:08.508Z,5.94
2022-11-19T02:49:44.553Z,6.17
2022-11-19T02:52:17.334Z,6.18
2022-11-19T02:54:47.710Z,6.34
2022-11-19T02:57:17.981Z,6.28
2022-11-19T03:00:09.404Z,6.29
2022-11-19T03:03:01.369Z,6.41
2022-11-19T03:05:38.124Z,6.39
2022-11-19T03:08:09.448Z,6.38
2022-11-19T03:10:51.713Z,6.41
2022-11-19T03:13:39.496Z,6.39
2022-11-19T03:16:29.428Z,6.40
2022-11-19T03:19:10.536Z,6.47
2022-11-19T03:21:46.519Z,6.53
2022-11-19T03:24:22.212Z,6.62
2022-11-19T03:27:00.715Z,6.54
2022-11-19T03:29:37.464Z,6.48
2022-11-19T03:32:14.093Z,6.45
2022-11-19T03:34:51.527Z,6.43
2022-11-19T03:37:28.071Z,6.50
2022-11-19T03:40:03.275Z,6.55
2022-11-19T03:42:34.211Z,6.58
2022-11-19T03:45:12.042Z,6.59
2022-11-19T03:47:46.890Z,6.61
2022-11-19T03:50:26.816Z,6.75
2022-11-19T03:53:02.751Z,6.76
2022-11-19T03:55:40.761Z,6.76
2022-11-19T03:58:14.562Z,6.61
2022-11-19T04:00:44.866Z,6.40
2022-11-19T04:03:15.179Z,6.53
2022-11-19T04:05:47.786Z,6.58
2022-11-19T04:08:18.113Z,6.70
2022-11-19T04:10:48.120Z,6.76
2022-11-19T04:13:18.288Z,6.91
2022-11-19T04:15:48.517Z,6.91
2022-11-19T04:18:18.578Z,6.78
2022-11-19T04:20:51.466Z,6.78
2022-11-19T04:23:21.441Z,6.60
2022-11-19T04:25:51.399Z,6.48
2022-11-19T04:28:21.492Z,6.54
2022-11-19T04:30:51.552Z,6.65
2022-11-19T04:33:21.634Z,6.69
2022-11-19T04:35:54.281Z,6.66
2022-11-19T04:38:24.382Z,6.48
2022-11-19T04:40:54.380Z,6.52
2022-11-19T04:43:24.484Z,6.59
2022-11-19T04:45:54.533Z,6.67
2022-11-19T04:48:24.564Z,6.67
2022-11-19T04:50:57.264Z,6.74
2022-11-19T04:53:27.287Z,6.67
2022-11-19T04:55:57.315Z,6.62
2022-11-19T04:58:27.408Z,6.68
2022-11-19T05:00:57.453Z,6.67
2022-11-19T05:03:27.736Z,6.64
2022-11-19T05:06:00.490Z,6.60
2022-11-19T05:08:30.578Z,6.61
2022-11-19T05:11:00.696Z,6.64
2022-11-19T05:13:30.757Z,6.48
2022-11-19T05:16:00.821Z,6.42
2022-11-19T05:18:30.890Z,6.43
2022-11-19T05:21:03.528Z,6.47
2022-11-19T05:23:33.515Z,6.37
2022-11-19T05:26:03.608Z,6.32
2022-11-19T05:28:38.925Z,6.43
2022-11-19T05:31:10.227Z,6.43
2022-11-19T05:33:40.335Z,6.43
2022-11-19T05:36:13.380Z,6.58
2022-11-19T05:38:43.820Z,6.58
2022-11-19T05:41:14.108Z,6.59
2022-11-19T05:43:44.234Z,6.58
2022-11-19T05:46:14.353Z,6.55
2022-11-19T05:48:44.389Z,6.57
2022-11-19T05:51:19.559Z,6.42
2022-11-19T05:53:49.774Z,6.25
2022-11-19T05:56:19.891Z,6.39
2022-11-19T05:58:49.941Z,6.41
2022-11-19T06:01:27.805Z,6.38
2022-11-19T06:03:58.626Z,6.44
2022-11-19T06:06:31.312Z,6.36
2022-11-19T06:09:01.326Z,6.43
2022-11-19T06:11:44.012Z,6.45
2022-11-19T06:14:14.096Z,6.40
2022-11-19T06:16:44.296Z,6.43
2022-11-19T06:19:14.760Z,6.41
2022-11-19T06:21:47.451Z,6.38
2022-11-19T06:24:18.021Z,6.30
2022-11-19T06:26:48.271Z,6.27
2022-11-19T06:29:20.983Z,6.42
2022-11-19T06:31:51.207Z,6.50
2022-11-19T06:34:21.307Z,6.47
2022-11-19T06:36:53.923Z,6.61
2022-11-19T06:39:23.933Z,6.49
2022-11-19T06:41:53.982Z,6.42
2022-11-19T06:44:24.758Z,6.45
2022-11-19T06:46:54.799Z,6.39
2022-11-19T06:49:25.227Z,6.38
2022-11-19T06:51:58.132Z,6.59
2022-11-19T06:54:28.155Z,6.62
2022-11-19T06:56:58.216Z,6.55
2022-11-19T06:59:28.224Z,6.62
2022-11-19T07:01:58.427Z,6.74
2022-11-19T07:04:28.484Z,6.70
2022-11-19T07:07:01.196Z,6.75
2022-11-19T07:09:31.276Z,6.83
2022-11-19T07:12:01.364Z,6.84
2022-11-19T07:14:31.409Z,6.85
2022-11-19T07:17:01.441Z,6.84
2022-11-19T07:19:31.674Z,6.74
2022-11-19T07:22:04.386Z,6.73
2022-11-19T07:24:34.436Z,6.73
2022-11-19T07:27:04.556Z,6.87
2022-11-19T07:29:34.689Z,6.91
2022-11-19T07:32:04.719Z,7.05
2022-11-19T07:34:34.772Z,7.07
2022-11-19T07:37:07.569Z,6.91
2022-11-19T07:39:37.606Z,6.95
2022-11-19T07:42:20.255Z,6.92
2022-11-19T07:44:55.487Z,6.86
2022-11-19T07:47:25.542Z,6.91
2022-11-19T07:49:55.560Z,6.91
2022-11-19T07:52:28.436Z,6.87
2022-11-19T07:54:58.641Z,6.92
2022-11-19T07:57:30.462Z,6.94
2022-11-19T08:00:00.818Z,6.97
2022-11-19T08:02:30.828Z,7.08
2022-11-19T08:05:00.906Z,7.08
2022-11-19T08:07:33.687Z,7.31
2022-11-19T08:10:03.765Z,7.43
2022-11-19T08:12:33.771Z,7.54
2022-11-19T08:15:03.792Z,7.52
2022-11-19T08:17:46.917Z,7.68
2022-11-19T08:20:18.256Z,7.68
2022-11-19T08:22:50.893Z,8.00
2022-11-19T08:25:20.991Z,8.22
2022-11-19T08:27:51.013Z,8.20
2022-11-19T08:30:21.193Z,8.14
2022-11-19T08:32:51.215Z,8.16
2022-11-19T08:35:21.306Z,8.17
2022-11-19T08:37:54.228Z,8.26
2022-11-19T08:40:24.325Z,8.06
2022-11-19T08:43:01.326Z,8.07
2022-11-19T08:45:35.000Z,8.15
2022-11-19T08:48:12.188Z,8.10
2022-11-19T08:50:47.541Z,8.19
2022-11-19T08:53:20.282Z,8.39
2022-11-19T08:55:54.217Z,8.35
2022-11-19T08:58:24.450Z,8.41
2022-11-19T09:00:54.504Z,8.54
2022-11-19T09:03:24.609Z,8.55
2022-11-19T09:06:02.037Z,8.57
2022-11-19T09:08:35.577Z,8.76
2022-11-19T09:11:10.310Z,8.94
2022-11-19T09:13:41.999Z,9.14
2022-11-19T09:16:13.559Z,9.33
2022-11-19T09:18:43.923Z,9.43
2022-11-19T09:21:15.277Z,9.54
2022-11-19T09:23:47.903Z,9.55
2022-11-19T09:26:20.934Z,9.79
2022-11-19T09:28:51.138Z,10.30
2022-11-19T09:31:23.066Z,10.20
2022-11-19T09:33:55.427Z,10.45
2022-11-19T09:36:25.737Z,10.97
2022-11-19T09:39:02.271Z,10.42
2022-11-19T09:41:46.950Z,10.67
2022-11-19T09:44:42.931Z,10.91
2022-11-19T09:47:29.852Z,10.32
2022-11-19T09:50:15.958Z,10.33
2022-11-19T09:52:52.029Z,9.99
2022-11-19T09:55:33.945Z,10.47
2022-11-19T09:58:08.813Z,10.77
2022-11-19T10:00:39.543Z,10.98
2022-11-19T10:03:17.697Z,10.92
2022-11-19T10:06:12.984Z,10.85
2022-11-19T10:09:05.660Z,10.39
2022-11-19T10:11:56.797Z,9.91
2022-11-19T10:15:02.661Z,9.89
2022-11-19T10:17:48.292Z,9.86
2022-11-19T10:20:55.964Z,9.68
2022-11-19T10:23:34.090Z,9.68
2022-11-19T10:26:13.720Z,9.50
2022-11-19T10:28:56.234Z,9.44
2022-11-19T10:31:38.175Z,9.52
2022-11-19T10:34:19.299Z,9.55
2022-11-19T10:36:56.466Z,9.63
2022-11-19T10:39:36.474Z,9.50
2022-11-19T10:42:20.772Z,9.46
2022-11-19T10:45:00.833Z,9.66
2022-11-19T10:47:40.206Z,9.76
2022-11-19T10:50:19.578Z,9.85
2022-11-19T10:52:55.823Z,9.67
2022-11-19T10:55:34.138Z,9.94
2022-11-19T10:58:16.755Z,10.29
2022-11-19T11:00:50.752Z,10.17
2022-11-19T11:03:28.188Z,10.33
2022-11-19T11:06:06.444Z,10.20
2022-11-19T11:08:49.596Z,10.04
2022-11-19T11:11:48.943Z,9.80
2022-11-19T11:14:34.242Z,9.73
2022-11-19T11:17:19.218Z,9.92
2022-11-19T11:20:01.163Z,10.07
2022-11-19T11:22:31.980Z,10.07
2022-11-19T11:25:07.296Z,10.21
2022-11-19T11:27:38.844Z,10.27
2022-11-19T11:30:26.645Z,9.94
2022-11-19T11:32:59.358Z,9.99
2022-11-19T11:35:35.637Z,9.88
2022-11-19T11:38:07.929Z,9.88
2022-11-19T11:40:38.506Z,9.87
2022-11-19T11:43:08.908Z,9.39
2022-11-19T11:45:40.973Z,9.59
2022-11-19T11:48:24.396Z,9.60
2022-11-19T11:50:54.604Z,9.36
2022-11-19T11:53:35.127Z,9.29
2022-11-19T11:56:05.941Z,9.24
2022-11-19T11:58:37.392Z,8.98
2022-11-19T12:01:18.371Z,8.57
2022-11-19T12:04:01.929Z,8.21
2022-11-19T12:06:44.879Z,8.36
2022-11-19T12:09:29.110Z,8.36
2022-11-19T12:12:06.871Z,8.54
2022-11-19T12:14:48.108Z,8.27
2022-11-19T12:17:33.400Z,8.26
2022-11-19T12:20:29.632Z,8.10
2022-11-19T12:23:28.396Z,8.09
2022-11-19T12:26:16.518Z,8.08
2022-11-19T12:29:08.911Z,8.21
2022-11-19T12:32:07.668Z,8.43
2022-11-19T12:34:57.712Z,8.40
2022-11-19T12:37:49.606Z,8.26
2022-11-19T12:40:39.661Z,8.27
2022-11-19T12:43:31.622Z,8.25
2022-11-19T12:46:13.285Z,8.16
2022-11-19T12:49:06.544Z,8.35
2022-11-19T12:51:54.627Z,8.41
2022-11-19T12:54:56.661Z,8.48
2022-11-19T12:57:46.700Z,8.69
2022-11-19T13:00:21.624Z,8.73
2022-11-19T13:03:05.516Z,8.70
2022-11-19T13:05:46.392Z,8.49
2022-11-19T13:08:24.779Z,8.17
2022-11-19T13:11:10.098Z,8.01
2022-11-19T13:13:47.022Z,7.73
2022-11-19T13:16:21.072Z,7.75
2022-11-19T13:18:57.622Z,7.56
2022-11-19T13:21:38.450Z,7.53
2022-11-19T13:24:22.567Z,7.37
2022-11-19T13:26:59.028Z,7.32
2022-11-19T13:29:42.492Z,7.23
2022-11-19T13:32:25.670Z,7.14
2022-11-19T13:35:22.734Z,7.08
2022-11-19T13:38:03.233Z,7.15
2022-11-19T13:40:40.183Z,7.12
2022-11-19T13:43:33.293Z,7.29
2022-11-19T13:46:29.589Z,7.31
2022-11-19T13:49:06.248Z,7.27
2022-11-19T13:51:47.580Z,7.24
2022-11-19T13:54:28.361Z,7.12
2022-11-19T13:57:01.460Z,7.20
2022-11-19T13:59:41.712Z,7.29
2022-11-19T14:02:55.932Z,7.46
2022-11-19T14:06:18.638Z,7.54
2022-11-19T14:09:22.708Z,7.67
2022-11-19T14:12:26.544Z,7.60
2022-11-19T14:15:42.305Z,7.70
2022-11-19T14:18:40.223Z,7.80
2022-11-19T14:22:05.851Z,7.86
2022-11-19T14:25:11.450Z,7.99
2022-11-19T14:27:41.790Z,8.05
2022-11-19T14:30:21.468Z,8.23
2022-11-19T14:32:54.727Z,8.45
2022-11-19T14:35:47.047Z,8.48
2022-11-19T14:38:50.260Z,8.27
2022-11-19T14:41:35.718Z,8.39
2022-11-19T14:44:14.178Z,8.56
2022-11-19T14:46:50.927Z,8.56
2022-11-19T14:49:38.125Z,8.57
2022-11-19T14:52:25.327Z,8.60
2022-11-19T14:54:59.720Z,8.63
2022-11-19T14:57:35.443Z,8.59
2022-11-19T15:00:10.611Z,8.55
2022-11-19T15:02:48.252Z,8.67
2022-11-19T15:05:23.582Z,8.75
2022-11-19T15:08:15.034Z,8.69
2022-11-19T15:11:07.278Z,8.63
2022-11-19T15:13:39.298Z,8.48
2022-11-19T15:16:17.431Z,8.45
2022-11-19T15:19:29.035Z,8.49
2022-11-19T15:22:38.100Z,8.49
2022-11-19T15:25:30.982Z,8.20
2022-11-19T15:28:47.124Z,8.07
2022-11-19T15:31:46.292Z,8.10
2022-11-19T15:35:09.785Z,8.16
2022-11-19T15:37:51.347Z,7.96
2022-11-19T15:40:29.024Z,7.78
2022-11-19T15:43:14.796Z,7.66
2022-11-19T15:45:52.864Z,7.63
2022-11-19T15:48:34.043Z,7.41
2022-11-19T15:51:09.502Z,7.41
2022-11-19T15:53:39.801Z,7.45
2022-11-19T15:56:15.348Z,7.51
2022-11-19T15:58:50.444Z,7.49
2022-11-19T16:01:23.341Z,7.61
2022-11-19T16:03:56.539Z,7.69
2022-11-19T16:06:31.980Z,7.69
2022-11-19T16:09:06.690Z,7.70
2022-11-19T16:11:53.346Z,7.74
2022-11-19T16:14:38.555Z,7.80
2022-11-19T16:17:28.344Z,7.67
2022-11-19T16:20:20.917Z,7.71
2022-11-19T16:23:00.714Z,7.62
2022-11-19T16:25:37.379Z,7.57
2022-11-19T16:28:13.285Z,7.48
2022-11-19T16:30:48.573Z,7.47
2022-11-19T16:33:23.141Z,7.28
2022-11-19T16:35:55.880Z,7.20
2022-11-19T16:38:30.953Z,6.91
2022-11-19T16:41:13.753Z,6.74
2022-11-19T16:43:48.885Z,6.59
2022-11-19T16:46:24.373Z,6.53
2022-11-19T16:49:00.586Z,6.47
2022-11-19T16:51:38.353Z,6.46
2022-11-19T16:54:13.232Z,6.41
2022-11-19T16:56:47.865Z,6.42
2022-11-19T16:59:24.424Z,6.33
2022-11-19T17:01:59.711Z,6.39
2022-11-19T17:04:34.378Z,6.42
2022-11-19T17:07:04.627Z,6.44
2022-11-19T17:09:45.321Z,6.51
2022-11-19T17:12:28.615Z,6.41
2022-11-19T17:15:01.678Z,6.15
2022-11-19T17:17:41.456Z,6.29
2022-11-19T17:21:02.208Z,6.10
2022-11-19T17:23:35.540Z,6.16
2022-11-19T17:26:12.033Z,6.13
2022-11-19T17:28:46.745Z,6.02
2022-11-19T17:31:23.482Z,6.13
2022-11-19T17:33:57.264Z,6.17
2022-11-19T17:36:28.535Z,6.14
2022-11-19T17:38:59.051Z,6.12
2022-11-19T17:41:44.906Z,6.18
2022-11-19T17:44:35.015Z,6.33
2022-11-19T17:47:13.540Z,6.28
2022-11-19T17:49:51.599Z,6.32
2022-11-19T17:52:28.067Z,6.20
2022-11-19T17:55:01.543Z,6.28
2022-11-19T17:57:41.155Z,6.38
2022-11-19T18:00:14.885Z,6.38
2022-11-19T18:02:44.958Z,6.19
2022-11-19T18:05:23.185Z,6.10
2022-11-19T18:07:53.360Z,6.11
2022-11-19T18:10:23.441Z,6.09
2022-11-19T18:12:56.308Z,5.89
2022-11-19T18:15:26.497Z,5.93
2022-11-19T18:17:59.761Z,5.89
2022-11-19T18:20:29.864Z,5.76
2022-11-19T18:23:00.313Z,5.86
2022-11-19T18:25:30.698Z,5.85
2022-11-19T18:28:03.604Z,5.72
2022-11-19T18:30:33.786Z,5.75
2022-11-19T18:33:03.912Z,5.81
2022-11-19T18:35:33.958Z,5.86
2022-11-19T18:38:04.511Z,5.83
2022-11-19T18:40:34.757Z,5.91
2022-11-19T18:43:19.873Z,6.00
2022-11-19T18:45:50.112Z,5.88
2022-11-19T18:48:20.421Z,6.03
2022-11-19T18:50:50.482Z,6.08
2022-11-19T18:53:20.540Z,6.12
2022-11-19T18:55:51.072Z,6.20
2022-11-19T18:58:23.684Z,6.23
2022-11-19T19:00:55.589Z,6.26
2022-11-19T19:03:25.783Z,6.23
2022-11-19T19:05:55.937Z,6.31
2022-11-19T19:08:26.239Z,6.37
2022-11-19T19:11:16.607Z,6.25
2022-11-19T19:13:47.264Z,6.41
2022-11-19T19:16:17.549Z,6.30
2022-11-19T19:18:47.732Z,6.34
2022-11-19T19:21:21.330Z,6.32
2022-11-19T19:23:52.495Z,6.36
2022-11-19T19:26:24.220Z,6.32
2022-11-19T19:28:57.936Z,6.36
2022-11-19T19:31:28.271Z,6.34
2022-11-19T19:33:58.573Z,6.18
2022-11-19T19:36:29.168Z,6.18
2022-11-19T19:38:59.431Z,6.23
2022-11-19T19:41:30.726Z,6.20
2022-11-19T19:44:07.058Z,6.21
2022-11-19T19:46:37.812Z,6.10
2022-11-19T19:49:08.023Z,6.06
2022-11-19T19:51:38.163Z,6.12
2022-11-19T19:54:08.606Z,5.99
2022-11-19T19:56:38.875Z,5.99
2022-11-19T19:59:15.597Z,6.09
2022-11-19T20:01:50.939Z,5.97
2022-11-19T20:04:22.255Z,6.08
2022-11-19T20:06:52.682Z,6.11
2022-11-19T20:09:23.284Z,6.11
2022-11-19T20:11:53.632Z,6.13
2022-11-19T20:14:26.828Z,6.09
2022-11-19T20:16:56.844Z,6.13
2022-11-19T20:19:27.044Z,6.09
2022-11-19T20:21:57.160Z,6.19
2022-11-19T20:24:27.281Z,6.13
2022-11-19T20:26:57.378Z,6.16
2022-11-19T20:29:30.092Z,6.16
2022-11-19T20:32:00.108Z,6.18
2022-11-19T20:34:30.153Z,6.10
2022-11-19T20:37:00.311Z,6.09
2022-11-19T20:39:30.431Z,6.02
2022-11-19T20:42:12.948Z,5.90
2022-11-19T20:44:45.618Z,5.95
2022-11-19T20:47:15.593Z,5.91
2022-11-19T20:49:45.602Z,5.85
2022-11-19T20:52:17.244Z,5.86
2022-11-19T20:54:48.071Z,5.85
2022-11-19T20:57:18.884Z,5.87
2022-11-19T20:59:51.732Z,5.87
2022-11-19T21:02:21.909Z,5.89
2022-11-19T21:04:52.140Z,5.86
2022-11-19T21:07:22.934Z,5.88
2022-11-19T21:09:53.097Z,5.83
2022-11-19T21:12:24.008Z,5.76
2022-11-19T21:14:56.904Z,5.75
2022-11-19T21:17:27.041Z,5.74
2022-11-19T21:19:57.217Z,5.66
2022-11-19T21:22:27.323Z,5.60
2022-11-19T21:24:57.399Z,5.55
2022-11-19T21:27:27.475Z,5.45
2022-11-19T21:30:00.126Z,5.51
2022-11-19T21:32:30.186Z,5.59
2022-11-19T21:35:00.321Z,5.56
2022-11-19T21:37:30.635Z,5.60
2022-11-19T21:40:00.695Z,5.60
2022-11-19T21:42:32.054Z,5.67
2022-11-19T21:45:04.751Z,5.67
2022-11-19T21:47:34.903Z,5.67
2022-11-19T21:50:04.962Z,5.69
2022-11-19T21:52:35.035Z,5.60
2022-11-19T21:55:05.084Z,5.65
2022-11-19T21:57:35.183Z,5.72
2022-11-19T22:00:10.530Z,5.81
2022-11-19T22:02:42.985Z,5.82
2022-11-19T22:05:13.278Z,5.89
2022-11-19T22:07:46.331Z,5.87
2022-11-19T22:10:16.916Z,5.95
2022-11-19T22:12:47.356Z,5.92
2022-11-19T22:15:20.206Z,5.96
2022-11-19T22:17:50.505Z,6.02
2022-11-19T22:20:20.763Z,5.92
2022-11-19T22:22:50.806Z,5.97
2022-11-19T22:25:21.300Z,6.05
2022-11-19T22:27:51.377Z,5.87
2022-11-19T22:30:24.057Z,5.89
2022-11-19T22:32:56.087Z,5.81
2022-11-19T22:35:26.124Z,5.78
2022-11-19T22:37:56.157Z,5.75
2022-11-19T22:40:26.181Z,5.72
2022-11-19T22:42:56.211Z,5.63
2022-11-19T22:45:28.904Z,5.69
2022-11-19T22:47:58.962Z,5.64
2022-11-19T22:50:29.034Z,5.57
2022-11-19T22:52:59.034Z,5.47
2022-11-19T22:55:29.083Z,5.41
2022-11-19T22:57:59.393Z,5.39
2022-11-19T23:00:48.097Z,5.35
2022-11-19T23:03:20.716Z,5.30
2022-11-19T23:05:53.879Z,5.22
2022-11-19T23:08:24.972Z,5.13
2022-11-19T23:11:01.474Z,5.15
2022-11-19T23:13:34.348Z,5.12
2022-11-19T23:16:11.001Z,5.13
2022-11-19T23:18:43.969Z,5.13
2022-11-19T23:21:17.598Z,5.12
2022-11-19T23:23:48.072Z,5.05
2022-11-19T23:26:22.144Z,4.93
2022-11-19T23:28:52.727Z,4.93
2022-11-19T23:31:28.408Z,4.89
2022-11-19T23:33:59.861Z,4.84
2022-11-19T23:36:32.308Z,4.79
2022-11-19T23:39:02.941Z,4.76
2022-11-19T23:41:35.972Z,4.74
2022-11-19T23:44:06.304Z,4.63
2022-11-19T23:46:39.784Z,4.58
2022-11-19T23:49:10.174Z,4.56
2022-11-19T23:51:41.892Z,4.51
2022-11-19T23:54:16.351Z,4.52
2022-11-19T23:56:46.623Z,4.46
2022-11-19T23:59:18.602Z,4.45
